sensor_id;sensor_type;location;lat;lon;timestamp;P1;durP1;ratioP1;P2;durP2;ratioP2
42832;SDS011;64089;51.478;5.692;2023-02-20T00:00:47;20.45;;;8.20;;
42832;SDS011;64089;51.478;5.692;2023-02-20T00:03:13;17.42;;;7.63;;
42832;SDS011;64089;51.478;5.692;2023-02-20T00:05:40;17.17;;;7.60;;
42832;SDS011;64089;51.478;5.692;2023-02-20T00:08:06;20.27;;;6.63;;
42832;SDS011;64089;51.478;5.692;2023-02-20T00:10:31;15.02;;;7.22;;
42832;SDS011;64089;51.478;5.692;2023-02-20T00:12:58;15.10;;;6.28;;
42832;SDS011;64089;51.478;5.692;2023-02-20T00:15:23;17.85;;;7.10;;
42832;SDS011;64089;51.478;5.692;2023-02-20T00:17:49;13.93;;;6.82;;
42832;SDS011;64089;51.478;5.692;2023-02-20T00:20:16;16.73;;;6.85;;
42832;SDS011;64089;51.478;5.692;2023-02-20T00:22:43;15.18;;;7.60;;
42832;SDS011;64089;51.478;5.692;2023-02-20T00:25:09;13.32;;;6.82;;
42832;SDS011;64089;51.478;5.692;2023-02-20T00:27:35;16.10;;;7.03;;
42832;SDS011;64089;51.478;5.692;2023-02-20T00:30:01;18.00;;;7.55;;
42832;SDS011;64089;51.478;5.692;2023-02-20T00:32:28;14.45;;;6.97;;
42832;SDS011;64089;51.478;5.692;2023-02-20T00:35:23;15.95;;;6.85;;
42832;SDS011;64089;51.478;5.692;2023-02-20T00:37:50;13.43;;;5.72;;
42832;SDS011;64089;51.478;5.692;2023-02-20T00:40:17;17.15;;;7.47;;
42832;SDS011;64089;51.478;5.692;2023-02-20T00:42:47;13.38;;;6.15;;
42832;SDS011;64089;51.478;5.692;2023-02-20T00:45:14;12.20;;;6.57;;
42832;SDS011;64089;51.478;5.692;2023-02-20T00:47:40;13.98;;;7.45;;
42832;SDS011;64089;51.478;5.692;2023-02-20T00:50:06;12.70;;;6.57;;
42832;SDS011;64089;51.478;5.692;2023-02-20T00:52:37;15.57;;;7.30;;
42832;SDS011;64089;51.478;5.692;2023-02-20T00:55:03;13.98;;;6.95;;
42832;SDS011;64089;51.478;5.692;2023-02-20T00:57:30;19.95;;;7.90;;
42832;SDS011;64089;51.478;5.692;2023-02-20T00:59:56;16.45;;;7.03;;
42832;SDS011;64089;51.478;5.692;2023-02-20T01:02:21;16.73;;;6.72;;
42832;SDS011;64089;51.478;5.692;2023-02-20T01:04:47;14.65;;;7.57;;
42832;SDS011;64089;51.478;5.692;2023-02-20T01:07:13;16.73;;;7.05;;
42832;SDS011;64089;51.478;5.692;2023-02-20T01:09:39;16.98;;;7.30;;
42832;SDS011;64089;51.478;5.692;2023-02-20T01:12:04;14.93;;;7.95;;
42832;SDS011;64089;51.478;5.692;2023-02-20T01:14:33;19.42;;;6.55;;
42832;SDS011;64089;51.478;5.692;2023-02-20T01:16:59;15.80;;;7.13;;
42832;SDS011;64089;51.478;5.692;2023-02-20T01:19:24;22.52;;;7.45;;
42832;SDS011;64089;51.478;5.692;2023-02-20T01:21:50;19.05;;;6.90;;
42832;SDS011;64089;51.478;5.692;2023-02-20T01:24:16;16.35;;;7.30;;
42832;SDS011;64089;51.478;5.692;2023-02-20T01:26:43;17.95;;;7.65;;
42832;SDS011;64089;51.478;5.692;2023-02-20T01:29:10;15.05;;;6.50;;
42832;SDS011;64089;51.478;5.692;2023-02-20T01:31:35;13.35;;;6.72;;
42832;SDS011;64089;51.478;5.692;2023-02-20T01:34:02;18.27;;;7.28;;
42832;SDS011;64089;51.478;5.692;2023-02-20T01:36:28;19.42;;;6.90;;
42832;SDS011;64089;51.478;5.692;2023-02-20T01:38:53;15.73;;;7.72;;
42832;SDS011;64089;51.478;5.692;2023-02-20T01:41:25;16.67;;;7.38;;
42832;SDS011;64089;51.478;5.692;2023-02-20T01:43:50;17.27;;;6.90;;
42832;SDS011;64089;51.478;5.692;2023-02-20T01:48:53;19.90;;;8.13;;
42832;SDS011;64089;51.478;5.692;2023-02-20T01:51:29;22.92;;;7.78;;
42832;SDS011;64089;51.478;5.692;2023-02-20T01:53:58;17.70;;;7.43;;
42832;SDS011;64089;51.478;5.692;2023-02-20T01:56:24;13.85;;;6.63;;
42832;SDS011;64089;51.478;5.692;2023-02-20T01:58:51;24.42;;;7.85;;
42832;SDS011;64089;51.478;5.692;2023-02-20T02:01:17;18.85;;;7.40;;
42832;SDS011;64089;51.478;5.692;2023-02-20T02:03:45;23.60;;;7.80;;
42832;SDS011;64089;51.478;5.692;2023-02-20T02:06:13;18.20;;;7.30;;
42832;SDS011;64089;51.478;5.692;2023-02-20T02:08:41;16.20;;;7.43;;
42832;SDS011;64089;51.478;5.692;2023-02-20T02:11:19;19.80;;;6.68;;
42832;SDS011;64089;51.478;5.692;2023-02-20T02:13:47;20.10;;;8.20;;
42832;SDS011;64089;51.478;5.692;2023-02-20T02:16:23;19.58;;;7.90;;
42832;SDS011;64089;51.478;5.692;2023-02-20T02:19:06;22.80;;;8.00;;
42832;SDS011;64089;51.478;5.692;2023-02-20T02:22:12;21.42;;;8.15;;
42832;SDS011;64089;51.478;5.692;2023-02-20T02:25:19;23.40;;;7.57;;
42832;SDS011;64089;51.478;5.692;2023-02-20T02:28:12;20.55;;;8.23;;
42832;SDS011;64089;51.478;5.692;2023-02-20T02:36:35;18.77;;;7.82;;
42832;SDS011;64089;51.478;5.692;2023-02-20T02:42:13;20.23;;;8.15;;
42832;SDS011;64089;51.478;5.692;2023-02-20T02:47:29;27.13;;;8.50;;
42832;SDS011;64089;51.478;5.692;2023-02-20T02:50:04;21.77;;;9.10;;
42832;SDS011;64089;51.478;5.692;2023-02-20T02:52:36;28.17;;;8.82;;
42832;SDS011;64089;51.478;5.692;2023-02-20T02:55:23;37.03;;;9.18;;
42832;SDS011;64089;51.478;5.692;2023-02-20T02:57:51;22.85;;;8.30;;
42832;SDS011;64089;51.478;5.692;2023-02-20T03:00:21;25.88;;;9.75;;
42832;SDS011;64089;51.478;5.692;2023-02-20T03:05:42;20.10;;;9.50;;
42832;SDS011;64089;51.478;5.692;2023-02-20T03:08:12;23.70;;;9.18;;
42832;SDS011;64089;51.478;5.692;2023-02-20T03:11:00;24.00;;;8.90;;
42832;SDS011;64089;51.478;5.692;2023-02-20T03:13:32;30.33;;;10.20;;
42832;SDS011;64089;51.478;5.692;2023-02-20T03:19:43;20.58;;;9.35;;
42832;SDS011;64089;51.478;5.692;2023-02-20T03:22:18;26.80;;;10.73;;
42832;SDS011;64089;51.478;5.692;2023-02-20T03:24:44;31.03;;;11.00;;
42832;SDS011;64089;51.478;5.692;2023-02-20T03:27:36;29.63;;;10.77;;
42832;SDS011;64089;51.478;5.692;2023-02-20T03:30:15;22.48;;;9.73;;
42832;SDS011;64089;51.478;5.692;2023-02-20T03:32:46;24.48;;;11.63;;
42832;SDS011;64089;51.478;5.692;2023-02-20T03:35:33;18.08;;;8.82;;
42832;SDS011;64089;51.478;5.692;2023-02-20T03:38:21;27.77;;;11.18;;
42832;SDS011;64089;51.478;5.692;2023-02-20T03:41:06;27.20;;;9.65;;
42832;SDS011;64089;51.478;5.692;2023-02-20T03:43:53;24.90;;;9.23;;
42832;SDS011;64089;51.478;5.692;2023-02-20T03:46:21;23.67;;;9.68;;
42832;SDS011;64089;51.478;5.692;2023-02-20T03:48:55;24.17;;;10.80;;
42832;SDS011;64089;51.478;5.692;2023-02-20T03:51:26;24.83;;;9.93;;
42832;SDS011;64089;51.478;5.692;2023-02-20T03:53:52;25.55;;;9.40;;
42832;SDS011;64089;51.478;5.692;2023-02-20T03:56:29;24.00;;;9.27;;
42832;SDS011;64089;51.478;5.692;2023-02-20T03:59:13;29.75;;;10.98;;
42832;SDS011;64089;51.478;5.692;2023-02-20T04:01:42;22.58;;;11.15;;
42832;SDS011;64089;51.478;5.692;2023-02-20T04:04:11;25.83;;;9.75;;
42832;SDS011;64089;51.478;5.692;2023-02-20T04:06:42;27.67;;;9.43;;
42832;SDS011;64089;51.478;5.692;2023-02-20T04:09:11;43.88;;;10.43;;
42832;SDS011;64089;51.478;5.692;2023-02-20T04:11:45;34.13;;;10.65;;
42832;SDS011;64089;51.478;5.692;2023-02-20T04:14:18;25.05;;;10.77;;
42832;SDS011;64089;51.478;5.692;2023-02-20T04:16:50;29.30;;;10.90;;
42832;SDS011;64089;51.478;5.692;2023-02-20T04:19:21;26.17;;;9.68;;
42832;SDS011;64089;51.478;5.692;2023-02-20T04:21:50;18.60;;;9.55;;
42832;SDS011;64089;51.478;5.692;2023-02-20T04:24:24;23.85;;;10.80;;
42832;SDS011;64089;51.478;5.692;2023-02-20T04:26:56;30.92;;;10.48;;
42832;SDS011;64089;51.478;5.692;2023-02-20T04:29:22;28.13;;;11.20;;
42832;SDS011;64089;51.478;5.692;2023-02-20T04:31:48;27.58;;;10.10;;
42832;SDS011;64089;51.478;5.692;2023-02-20T04:34:14;23.33;;;10.60;;
42832;SDS011;64089;51.478;5.692;2023-02-20T04:36:40;27.75;;;9.55;;
42832;SDS011;64089;51.478;5.692;2023-02-20T04:39:06;25.60;;;10.48;;
42832;SDS011;64089;51.478;5.692;2023-02-20T04:41:31;20.85;;;10.25;;
42832;SDS011;64089;51.478;5.692;2023-02-20T04:43:57;20.80;;;9.73;;
42832;SDS011;64089;51.478;5.692;2023-02-20T04:46:41;20.65;;;9.13;;
42832;SDS011;64089;51.478;5.692;2023-02-20T04:49:07;25.92;;;9.65;;
42832;SDS011;64089;51.478;5.692;2023-02-20T04:51:33;18.25;;;9.32;;
42832;SDS011;64089;51.478;5.692;2023-02-20T04:53:58;27.60;;;9.57;;
42832;SDS011;64089;51.478;5.692;2023-02-20T04:56:24;26.77;;;9.40;;
42832;SDS011;64089;51.478;5.692;2023-02-20T04:58:49;21.38;;;8.75;;
42832;SDS011;64089;51.478;5.692;2023-02-20T05:01:16;21.65;;;9.48;;
42832;SDS011;64089;51.478;5.692;2023-02-20T05:03:41;24.23;;;9.23;;
42832;SDS011;64089;51.478;5.692;2023-02-20T05:06:07;17.50;;;8.57;;
42832;SDS011;64089;51.478;5.692;2023-02-20T05:08:32;26.92;;;9.35;;
42832;SDS011;64089;51.478;5.692;2023-02-20T05:10:58;23.35;;;9.30;;
42832;SDS011;64089;51.478;5.692;2023-02-20T05:13:24;19.38;;;8.35;;
42832;SDS011;64089;51.478;5.692;2023-02-20T05:15:49;29.02;;;9.82;;
42832;SDS011;64089;51.478;5.692;2023-02-20T05:18:24;24.65;;;9.15;;
42832;SDS011;64089;51.478;5.692;2023-02-20T05:20:51;27.73;;;8.63;;
42832;SDS011;64089;51.478;5.692;2023-02-20T05:23:36;23.45;;;9.70;;
42832;SDS011;64089;51.478;5.692;2023-02-20T05:26:01;23.33;;;9.02;;
42832;SDS011;64089;51.478;5.692;2023-02-20T05:28:27;30.05;;;8.85;;
42832;SDS011;64089;51.478;5.692;2023-02-20T05:30:53;21.02;;;8.57;;
42832;SDS011;64089;51.478;5.692;2023-02-20T05:33:18;27.33;;;8.90;;
42832;SDS011;64089;51.478;5.692;2023-02-20T05:35:47;33.70;;;9.90;;
42832;SDS011;64089;51.478;5.692;2023-02-20T05:38:18;27.92;;;10.73;;
42832;SDS011;64089;51.478;5.692;2023-02-20T05:40:47;32.63;;;10.35;;
42832;SDS011;64089;51.478;5.692;2023-02-20T05:43:12;27.27;;;8.73;;
42832;SDS011;64089;51.478;5.692;2023-02-20T05:45:40;27.52;;;9.57;;
42832;SDS011;64089;51.478;5.692;2023-02-20T05:48:05;30.45;;;9.75;;
42832;SDS011;64089;51.478;5.692;2023-02-20T05:50:31;26.55;;;10.35;;
42832;SDS011;64089;51.478;5.692;2023-02-20T05:52:57;27.30;;;10.13;;
42832;SDS011;64089;51.478;5.692;2023-02-20T05:55:23;26.33;;;8.40;;
42832;SDS011;64089;51.478;5.692;2023-02-20T05:57:50;29.13;;;8.77;;
42832;SDS011;64089;51.478;5.692;2023-02-20T06:00:16;20.00;;;8.65;;
42832;SDS011;64089;51.478;5.692;2023-02-20T06:02:42;29.67;;;9.65;;
42832;SDS011;64089;51.478;5.692;2023-02-20T06:05:08;17.75;;;8.80;;
42832;SDS011;64089;51.478;5.692;2023-02-20T06:07:34;21.48;;;8.88;;
42832;SDS011;64089;51.478;5.692;2023-02-20T06:09:59;25.95;;;8.80;;
42832;SDS011;64089;51.478;5.692;2023-02-20T06:12:25;26.30;;;9.23;;
42832;SDS011;64089;51.478;5.692;2023-02-20T06:14:51;23.30;;;9.38;;
42832;SDS011;64089;51.478;5.692;2023-02-20T06:17:16;27.92;;;10.07;;
42832;SDS011;64089;51.478;5.692;2023-02-20T06:19:42;27.75;;;9.60;;
42832;SDS011;64089;51.478;5.692;2023-02-20T06:22:07;24.05;;;9.52;;
42832;SDS011;64089;51.478;5.692;2023-02-20T06:24:33;24.85;;;9.23;;
42832;SDS011;64089;51.478;5.692;2023-02-20T06:26:58;18.92;;;7.80;;
42832;SDS011;64089;51.478;5.692;2023-02-20T06:29:25;23.90;;;10.40;;
42832;SDS011;64089;51.478;5.692;2023-02-20T06:31:51;31.67;;;10.65;;
42832;SDS011;64089;51.478;5.692;2023-02-20T06:34:16;23.13;;;8.48;;
42832;SDS011;64089;51.478;5.692;2023-02-20T06:36:42;28.52;;;9.85;;
42832;SDS011;64089;51.478;5.692;2023-02-20T06:39:09;26.55;;;8.57;;
42832;SDS011;64089;51.478;5.692;2023-02-20T06:41:36;23.60;;;9.07;;
42832;SDS011;64089;51.478;5.692;2023-02-20T06:44:02;21.38;;;8.13;;
42832;SDS011;64089;51.478;5.692;2023-02-20T06:46:29;24.73;;;9.85;;
42832;SDS011;64089;51.478;5.692;2023-02-20T06:48:56;20.70;;;7.75;;
42832;SDS011;64089;51.478;5.692;2023-02-20T06:51:24;23.30;;;9.57;;
42832;SDS011;64089;51.478;5.692;2023-02-20T06:53:51;24.35;;;7.75;;
42832;SDS011;64089;51.478;5.692;2023-02-20T06:56:18;24.48;;;9.48;;
42832;SDS011;64089;51.478;5.692;2023-02-20T06:58:46;20.05;;;8.95;;
42832;SDS011;64089;51.478;5.692;2023-02-20T07:01:12;18.63;;;8.10;;
42832;SDS011;64089;51.478;5.692;2023-02-20T07:03:39;33.25;;;8.48;;
42832;SDS011;64089;51.478;5.692;2023-02-20T07:06:08;17.35;;;8.02;;
42832;SDS011;64089;51.478;5.692;2023-02-20T07:08:34;25.70;;;7.03;;
42832;SDS011;64089;51.478;5.692;2023-02-20T07:10:59;22.40;;;7.80;;
42832;SDS011;64089;51.478;5.692;2023-02-20T07:13:25;19.38;;;6.93;;
42832;SDS011;64089;51.478;5.692;2023-02-20T07:15:50;26.75;;;8.15;;
42832;SDS011;64089;51.478;5.692;2023-02-20T07:18:16;18.60;;;7.20;;
42832;SDS011;64089;51.478;5.692;2023-02-20T07:20:42;19.33;;;7.35;;
42832;SDS011;64089;51.478;5.692;2023-02-20T07:23:11;24.75;;;7.38;;
42832;SDS011;64089;51.478;5.692;2023-02-20T07:25:40;21.38;;;8.32;;
42832;SDS011;64089;51.478;5.692;2023-02-20T07:28:05;19.70;;;8.65;;
42832;SDS011;64089;51.478;5.692;2023-02-20T07:30:32;24.05;;;8.35;;
42832;SDS011;64089;51.478;5.692;2023-02-20T07:32:58;20.92;;;7.65;;
42832;SDS011;64089;51.478;5.692;2023-02-20T07:35:26;20.52;;;8.32;;
42832;SDS011;64089;51.478;5.692;2023-02-20T07:37:52;18.23;;;7.53;;
42832;SDS011;64089;51.478;5.692;2023-02-20T07:40:17;25.20;;;9.38;;
42832;SDS011;64089;51.478;5.692;2023-02-20T07:42:43;24.73;;;8.45;;
42832;SDS011;64089;51.478;5.692;2023-02-20T07:45:09;27.00;;;9.02;;
42832;SDS011;64089;51.478;5.692;2023-02-20T07:47:35;23.88;;;8.73;;
42832;SDS011;64089;51.478;5.692;2023-02-20T07:50:01;18.50;;;8.13;;
42832;SDS011;64089;51.478;5.692;2023-02-20T07:52:27;26.50;;;8.82;;
42832;SDS011;64089;51.478;5.692;2023-02-20T07:54:53;19.40;;;9.27;;
42832;SDS011;64089;51.478;5.692;2023-02-20T07:57:21;23.27;;;8.70;;
42832;SDS011;64089;51.478;5.692;2023-02-20T07:59:47;37.17;;;8.98;;
42832;SDS011;64089;51.478;5.692;2023-02-20T08:02:13;20.58;;;8.43;;
42832;SDS011;64089;51.478;5.692;2023-02-20T08:04:39;21.85;;;8.18;;
42832;SDS011;64089;51.478;5.692;2023-02-20T08:07:04;26.20;;;10.50;;
42832;SDS011;64089;51.478;5.692;2023-02-20T08:09:33;27.30;;;9.27;;
42832;SDS011;64089;51.478;5.692;2023-02-20T08:11:59;20.88;;;8.15;;
42832;SDS011;64089;51.478;5.692;2023-02-20T08:14:24;28.02;;;9.05;;
42832;SDS011;64089;51.478;5.692;2023-02-20T08:16:52;18.42;;;9.25;;
42832;SDS011;64089;51.478;5.692;2023-02-20T08:19:18;15.30;;;7.15;;
42832;SDS011;64089;51.478;5.692;2023-02-20T08:21:45;22.05;;;9.13;;
42832;SDS011;64089;51.478;5.692;2023-02-20T08:24:10;19.98;;;9.30;;
42832;SDS011;64089;51.478;5.692;2023-02-20T08:26:46;18.00;;;7.90;;
42832;SDS011;64089;51.478;5.692;2023-02-20T08:29:12;21.65;;;8.23;;
42832;SDS011;64089;51.478;5.692;2023-02-20T08:31:39;34.67;;;9.15;;
42832;SDS011;64089;51.478;5.692;2023-02-20T08:34:04;18.98;;;7.70;;
42832;SDS011;64089;51.478;5.692;2023-02-20T08:36:30;17.60;;;7.53;;
42832;SDS011;64089;51.478;5.692;2023-02-20T08:38:56;24.80;;;8.38;;
42832;SDS011;64089;51.478;5.692;2023-02-20T08:41:24;24.23;;;7.90;;
42832;SDS011;64089;51.478;5.692;2023-02-20T08:43:51;32.70;;;7.97;;
42832;SDS011;64089;51.478;5.692;2023-02-20T08:46:16;15.02;;;8.07;;
42832;SDS011;64089;51.478;5.692;2023-02-20T08:48:47;22.45;;;8.98;;
42832;SDS011;64089;51.478;5.692;2023-02-20T08:51:16;20.50;;;7.60;;
42832;SDS011;64089;51.478;5.692;2023-02-20T08:53:43;31.83;;;9.05;;
42832;SDS011;64089;51.478;5.692;2023-02-20T08:56:09;21.40;;;9.02;;
42832;SDS011;64089;51.478;5.692;2023-02-20T08:58:36;25.70;;;8.20;;
42832;SDS011;64089;51.478;5.692;2023-02-20T09:01:02;23.42;;;8.07;;
42832;SDS011;64089;51.478;5.692;2023-02-20T09:03:29;42.92;;;13.88;;
42832;SDS011;64089;51.478;5.692;2023-02-20T09:05:55;40.03;;;16.23;;
42832;SDS011;64089;51.478;5.692;2023-02-20T09:08:20;51.55;;;20.23;;
42832;SDS011;64089;51.478;5.692;2023-02-20T09:10:46;61.97;;;26.05;;
42832;SDS011;64089;51.478;5.692;2023-02-20T09:13:12;25.67;;;9.48;;
42832;SDS011;64089;51.478;5.692;2023-02-20T09:15:38;34.40;;;8.20;;
42832;SDS011;64089;51.478;5.692;2023-02-20T09:18:07;24.52;;;8.30;;
42832;SDS011;64089;51.478;5.692;2023-02-20T09:20:38;21.77;;;8.98;;
42832;SDS011;64089;51.478;5.692;2023-02-20T09:23:07;20.40;;;7.90;;
42832;SDS011;64089;51.478;5.692;2023-02-20T09:25:36;23.10;;;8.02;;
42832;SDS011;64089;51.478;5.692;2023-02-20T09:28:02;19.92;;;8.27;;
42832;SDS011;64089;51.478;5.692;2023-02-20T09:30:28;21.10;;;8.13;;
42832;SDS011;64089;51.478;5.692;2023-02-20T09:32:56;19.08;;;8.23;;
42832;SDS011;64089;51.478;5.692;2023-02-20T09:35:24;19.15;;;7.82;;
42832;SDS011;64089;51.478;5.692;2023-02-20T09:37:51;28.08;;;9.25;;
42832;SDS011;64089;51.478;5.692;2023-02-20T09:40:22;20.73;;;7.07;;
42832;SDS011;64089;51.478;5.692;2023-02-20T09:45:37;20.77;;;9.65;;
42832;SDS011;64089;51.478;5.692;2023-02-20T09:48:18;25.50;;;8.52;;
42832;SDS011;64089;51.478;5.692;2023-02-20T09:51:17;20.05;;;8.80;;
42832;SDS011;64089;51.478;5.692;2023-02-20T09:53:56;18.80;;;8.35;;
42832;SDS011;64089;51.478;5.692;2023-02-20T09:56:32;17.98;;;8.80;;
42832;SDS011;64089;51.478;5.692;2023-02-20T10:01:50;25.65;;;8.90;;
42832;SDS011;64089;51.478;5.692;2023-02-20T10:04:22;25.98;;;9.02;;
42832;SDS011;64089;51.478;5.692;2023-02-20T10:06:59;31.95;;;9.18;;
42832;SDS011;64089;51.478;5.692;2023-02-20T10:09:32;15.70;;;7.53;;
42832;SDS011;64089;51.478;5.692;2023-02-20T10:12:09;17.73;;;8.18;;
42832;SDS011;64089;51.478;5.692;2023-02-20T10:14:59;21.10;;;7.72;;
42832;SDS011;64089;51.478;5.692;2023-02-20T10:26:03;29.83;;;10.77;;
42832;SDS011;64089;51.478;5.692;2023-02-20T10:28:32;50.45;;;23.48;;
42832;SDS011;64089;51.478;5.692;2023-02-20T10:33:56;21.48;;;9.18;;
42832;SDS011;64089;51.478;5.692;2023-02-20T10:36:36;14.90;;;7.88;;
42832;SDS011;64089;51.478;5.692;2023-02-20T10:39:10;13.32;;;6.47;;
42832;SDS011;64089;51.478;5.692;2023-02-20T10:44:19;17.17;;;8.07;;
42832;SDS011;64089;51.478;5.692;2023-02-20T10:46:56;22.60;;;8.20;;
42832;SDS011;64089;51.478;5.692;2023-02-20T10:52:14;36.28;;;8.57;;
42832;SDS011;64089;51.478;5.692;2023-02-20T10:54:51;29.58;;;8.77;;
42832;SDS011;64089;51.478;5.692;2023-02-20T10:57:30;19.40;;;8.10;;
42832;SDS011;64089;51.478;5.692;2023-02-20T11:00:08;20.80;;;9.20;;
42832;SDS011;64089;51.478;5.692;2023-02-20T11:02:58;25.02;;;9.00;;
42832;SDS011;64089;51.478;5.692;2023-02-20T11:05:34;24.25;;;8.02;;
42832;SDS011;64089;51.478;5.692;2023-02-20T11:08:09;17.27;;;8.60;;
42832;SDS011;64089;51.478;5.692;2023-02-20T11:10:34;23.58;;;10.02;;
42832;SDS011;64089;51.478;5.692;2023-02-20T11:13:02;21.77;;;8.25;;
42832;SDS011;64089;51.478;5.692;2023-02-20T11:15:29;24.13;;;8.38;;
42832;SDS011;64089;51.478;5.692;2023-02-20T11:17:58;16.90;;;7.10;;
42832;SDS011;64089;51.478;5.692;2023-02-20T11:22:56;21.17;;;8.20;;
42832;SDS011;64089;51.478;5.692;2023-02-20T11:25:29;24.73;;;7.82;;
42832;SDS011;64089;51.478;5.692;2023-02-20T11:30:46;27.88;;;8.52;;
42832;SDS011;64089;51.478;5.692;2023-02-20T11:33:43;26.02;;;10.13;;
42832;SDS011;64089;51.478;5.692;2023-02-20T11:36:14;24.67;;;10.60;;
42832;SDS011;64089;51.478;5.692;2023-02-20T11:38:43;27.92;;;9.07;;
42832;SDS011;64089;51.478;5.692;2023-02-20T11:41:26;33.47;;;9.95;;
42832;SDS011;64089;51.478;5.692;2023-02-20T11:44:23;19.33;;;10.18;;
42832;SDS011;64089;51.478;5.692;2023-02-20T11:47:13;20.45;;;9.63;;
42832;SDS011;64089;51.478;5.692;2023-02-20T11:49:46;28.42;;;10.35;;
42832;SDS011;64089;51.478;5.692;2023-02-20T11:54:45;18.55;;;9.68;;
42832;SDS011;64089;51.478;5.692;2023-02-20T11:57:26;23.40;;;9.50;;
42832;SDS011;64089;51.478;5.692;2023-02-20T12:00:16;23.70;;;9.48;;
42832;SDS011;64089;51.478;5.692;2023-02-20T12:05:12;28.20;;;11.07;;
42832;SDS011;64089;51.478;5.692;2023-02-20T12:12:52;27.40;;;10.77;;
42832;SDS011;64089;51.478;5.692;2023-02-20T12:15:20;25.88;;;12.05;;
42832;SDS011;64089;51.478;5.692;2023-02-20T12:17:59;29.65;;;10.77;;
42832;SDS011;64089;51.478;5.692;2023-02-20T12:23:31;29.85;;;10.68;;
42832;SDS011;64089;51.478;5.692;2023-02-20T12:26:55;28.65;;;10.55;;
42832;SDS011;64089;51.478;5.692;2023-02-20T12:29:04;31.38;;;11.88;;
42832;SDS011;64089;51.478;5.692;2023-02-20T12:31:45;41.47;;;11.95;;
42832;SDS011;64089;51.478;5.692;2023-02-20T12:35:09;33.60;;;10.35;;
42832;SDS011;64089;51.478;5.692;2023-02-20T12:37:16;26.73;;;11.90;;
42832;SDS011;64089;51.478;5.692;2023-02-20T12:43:15;27.50;;;10.77;;
42832;SDS011;64089;51.478;5.692;2023-02-20T12:45:53;27.35;;;11.45;;
42832;SDS011;64089;51.478;5.692;2023-02-20T12:57:02;29.27;;;10.75;;
42832;SDS011;64089;51.478;5.692;2023-02-20T12:59:47;35.80;;;10.63;;
42832;SDS011;64089;51.478;5.692;2023-02-20T13:02:32;25.38;;;10.32;;
42832;SDS011;64089;51.478;5.692;2023-02-20T13:05:06;23.77;;;10.88;;
42832;SDS011;64089;51.478;5.692;2023-02-20T13:10:12;22.52;;;10.57;;
42832;SDS011;64089;51.478;5.692;2023-02-20T13:12:38;25.73;;;10.32;;
42832;SDS011;64089;51.478;5.692;2023-02-20T13:15:14;28.27;;;9.45;;
42832;SDS011;64089;51.478;5.692;2023-02-20T13:18:06;18.98;;;9.63;;
42832;SDS011;64089;51.478;5.692;2023-02-20T13:21:24;22.67;;;8.95;;
42832;SDS011;64089;51.478;5.692;2023-02-20T13:26:00;18.10;;;8.48;;
42832;SDS011;64089;51.478;5.692;2023-02-20T13:28:36;21.58;;;9.88;;
42832;SDS011;64089;51.478;5.692;2023-02-20T13:33:46;33.92;;;10.02;;
42832;SDS011;64089;51.478;5.692;2023-02-20T13:36:39;21.65;;;9.77;;
42832;SDS011;64089;51.478;5.692;2023-02-20T13:57:23;25.45;;;10.05;;
42832;SDS011;64089;51.478;5.692;2023-02-20T13:59:54;24.02;;;9.75;;
42832;SDS011;64089;51.478;5.692;2023-02-20T14:02:20;25.02;;;10.30;;
42832;SDS011;64089;51.478;5.692;2023-02-20T14:05:01;22.23;;;11.40;;
42832;SDS011;64089;51.478;5.692;2023-02-20T14:07:30;23.30;;;10.35;;
42832;SDS011;64089;51.478;5.692;2023-02-20T14:09:59;28.80;;;11.82;;
42832;SDS011;64089;51.478;5.692;2023-02-20T14:12:38;29.50;;;11.18;;
42832;SDS011;64089;51.478;5.692;2023-02-20T14:15:04;21.48;;;10.38;;
42832;SDS011;64089;51.478;5.692;2023-02-20T14:17:31;29.05;;;10.57;;
42832;SDS011;64089;51.478;5.692;2023-02-20T14:20:00;25.05;;;10.80;;
42832;SDS011;64089;51.478;5.692;2023-02-20T14:22:30;24.65;;;10.90;;
42832;SDS011;64089;51.478;5.692;2023-02-20T14:27:41;22.75;;;9.77;;
42832;SDS011;64089;51.478;5.692;2023-02-20T14:30:11;21.40;;;10.35;;
42832;SDS011;64089;51.478;5.692;2023-02-20T14:32:37;23.05;;;11.57;;
42832;SDS011;64089;51.478;5.692;2023-02-20T14:37:51;23.00;;;10.90;;
42832;SDS011;64089;51.478;5.692;2023-02-20T14:40:41;19.13;;;10.02;;
42832;SDS011;64089;51.478;5.692;2023-02-20T14:43:18;18.90;;;10.48;;
42832;SDS011;64089;51.478;5.692;2023-02-20T14:45:47;23.48;;;10.75;;
42832;SDS011;64089;51.478;5.692;2023-02-20T14:48:29;20.55;;;10.95;;
42832;SDS011;64089;51.478;5.692;2023-02-20T14:51:04;31.52;;;10.35;;
42832;SDS011;64089;51.478;5.692;2023-02-20T14:53:38;27.02;;;10.55;;
42832;SDS011;64089;51.478;5.692;2023-02-20T14:56:10;24.30;;;9.80;;
42832;SDS011;64089;51.478;5.692;2023-02-20T14:58:43;19.73;;;9.38;;
42832;SDS011;64089;51.478;5.692;2023-02-20T15:01:13;25.48;;;11.02;;
42832;SDS011;64089;51.478;5.692;2023-02-20T15:03:39;18.95;;;9.95;;
42832;SDS011;64089;51.478;5.692;2023-02-20T15:06:05;26.13;;;10.45;;
42832;SDS011;64089;51.478;5.692;2023-02-20T15:08:36;25.45;;;9.80;;
42832;SDS011;64089;51.478;5.692;2023-02-20T15:11:06;16.90;;;9.45;;
42832;SDS011;64089;51.478;5.692;2023-02-20T15:13:38;19.77;;;9.57;;
42832;SDS011;64089;51.478;5.692;2023-02-20T15:16:06;25.90;;;10.02;;
42832;SDS011;64089;51.478;5.692;2023-02-20T15:18:45;28.35;;;10.18;;
42832;SDS011;64089;51.478;5.692;2023-02-20T15:21:11;27.70;;;10.00;;
42832;SDS011;64089;51.478;5.692;2023-02-20T15:23:41;19.05;;;9.13;;
42832;SDS011;64089;51.478;5.692;2023-02-20T15:26:27;22.70;;;9.77;;
42832;SDS011;64089;51.478;5.692;2023-02-20T15:34:34;21.73;;;10.77;;
42832;SDS011;64089;51.478;5.692;2023-02-20T15:37:13;29.08;;;10.50;;
42832;SDS011;64089;51.478;5.692;2023-02-20T15:42:12;21.02;;;10.60;;
42832;SDS011;64089;51.478;5.692;2023-02-20T15:44:38;18.30;;;9.85;;
42832;SDS011;64089;51.478;5.692;2023-02-20T15:47:03;22.20;;;11.75;;
42832;SDS011;64089;51.478;5.692;2023-02-20T15:49:29;23.20;;;10.48;;
42832;SDS011;64089;51.478;5.692;2023-02-20T15:51:55;26.45;;;11.70;;
42832;SDS011;64089;51.478;5.692;2023-02-20T15:54:20;19.42;;;10.00;;
42832;SDS011;64089;51.478;5.692;2023-02-20T15:56:46;23.38;;;11.38;;
42832;SDS011;64089;51.478;5.692;2023-02-20T15:59:12;34.95;;;12.15;;
42832;SDS011;64089;51.478;5.692;2023-02-20T16:01:38;21.30;;;10.57;;
42832;SDS011;64089;51.478;5.692;2023-02-20T16:04:05;25.33;;;10.85;;
42832;SDS011;64089;51.478;5.692;2023-02-20T16:06:31;27.65;;;11.02;;
42832;SDS011;64089;51.478;5.692;2023-02-20T16:08:57;17.00;;;9.88;;
42832;SDS011;64089;51.478;5.692;2023-02-20T16:11:24;25.13;;;10.63;;
42832;SDS011;64089;51.478;5.692;2023-02-20T16:13:55;22.30;;;10.40;;
42832;SDS011;64089;51.478;5.692;2023-02-20T16:19:01;21.10;;;10.23;;
42832;SDS011;64089;51.478;5.692;2023-02-20T16:21:28;25.55;;;10.50;;
42832;SDS011;64089;51.478;5.692;2023-02-20T16:23:54;23.58;;;10.30;;
42832;SDS011;64089;51.478;5.692;2023-02-20T16:26:24;21.65;;;11.45;;
42832;SDS011;64089;51.478;5.692;2023-02-20T16:29:00;24.38;;;11.55;;
42832;SDS011;64089;51.478;5.692;2023-02-20T16:34:22;24.95;;;9.43;;
42832;SDS011;64089;51.478;5.692;2023-02-20T16:36:49;27.88;;;10.07;;
42832;SDS011;64089;51.478;5.692;2023-02-20T16:39:16;23.80;;;10.77;;
42832;SDS011;64089;51.478;5.692;2023-02-20T16:41:41;21.08;;;9.23;;
42832;SDS011;64089;51.478;5.692;2023-02-20T16:46:54;23.67;;;9.50;;
42832;SDS011;64089;51.478;5.692;2023-02-20T16:49:22;19.95;;;9.05;;
42832;SDS011;64089;51.478;5.692;2023-02-20T16:51:48;24.42;;;9.98;;